Tripoli, Lebanon
Current Conditions -  °F | °C
As of 3:00 PM on Thursday 30 Oct 2014 (Local Time) from OLBA Reporting Station
Few Clouds Few Clouds  
Wind Chill: 77°   Ceiling: Unl
Heat Index: 79°   Visibility: 6mi
Dew Point: 59°   Wind: 8mph
Humidity: 54%   Direction: 250°WSW
Pressure: 29.94"   Gusts: NA
Location:  34.45°N, 35.84°E
Report Text: OLBA 301200Z 25007KT 9999 FEW023 25/15 Q1014
Loading
Personal Weather Stations






























Interactive Weather Map
Tropical Storm Tracking
New forecast layout! Learn more

10-Day Weather Forecast

Advertisements
Track Severe Weather on mobile